createdAt,value
2022-09-17T00:01:33.275Z,2.13
2022-09-17T00:04:04.740Z,3.03
2022-09-17T00:06:34.989Z,2.27
2022-09-17T00:09:04.392Z,2.80
2022-09-17T00:11:35.098Z,2.60
2022-09-17T00:14:05.248Z,2.63
2022-09-17T00:16:37.645Z,3.17
2022-09-17T00:19:08.309Z,2.87
2022-09-17T00:21:36.310Z,2.50
2022-09-17T00:24:06.567Z,2.40
2022-09-17T00:26:36.798Z,2.30
2022-09-17T00:29:05.527Z,3.23
2022-09-17T00:31:35.562Z,2.33
2022-09-17T00:34:05.501Z,3.27
2022-09-17T00:36:37.352Z,2.83
2022-09-17T00:39:07.191Z,2.23
2022-09-17T00:41:37.075Z,2.80
2022-09-17T00:44:38.295Z,2.43
2022-09-17T00:47:14.141Z,2.73
2022-09-17T00:49:42.583Z,2.63
2022-09-17T00:52:14.513Z,2.70
2022-09-17T00:54:45.979Z,1.90
2022-09-17T00:57:16.937Z,2.27
2022-09-17T00:59:44.949Z,2.20
2022-09-17T01:02:14.522Z,2.70
2022-09-17T01:04:43.029Z,2.83
2022-09-17T01:07:17.199Z,3.30
2022-09-17T01:09:50.463Z,2.30
2022-09-17T01:12:47.862Z,2.63
2022-09-17T01:15:25.359Z,2.50
2022-09-17T01:18:07.769Z,2.73
2022-09-17T01:21:19.617Z,2.53
2022-09-17T01:24:38.593Z,2.13
2022-09-17T01:27:35.051Z,2.77
2022-09-17T01:30:40.757Z,2.70
2022-09-17T01:33:17.197Z,2.10
2022-09-17T01:35:54.067Z,2.17
2022-09-17T01:38:29.156Z,2.97
2022-09-17T01:41:07.806Z,2.33
2022-09-17T01:43:41.297Z,2.60
2022-09-17T01:46:18.031Z,2.30
2022-09-17T01:48:50.077Z,3.03
2022-09-17T01:51:22.212Z,2.33
2022-09-17T01:53:53.724Z,3.00
2022-09-17T01:56:26.363Z,2.20
2022-09-17T01:59:00.843Z,1.80
2022-09-17T02:01:32.819Z,3.00
2022-09-17T02:04:05.227Z,2.20
2022-09-17T02:06:37.879Z,3.70
2022-09-17T02:09:11.676Z,3.40
2022-09-17T02:11:47.203Z,2.50
2022-09-17T02:14:19.089Z,1.90
2022-09-17T02:16:54.551Z,2.03
2022-09-17T02:19:26.046Z,3.80
2022-09-17T02:22:02.274Z,1.70
2022-09-17T02:24:36.778Z,2.13
2022-09-17T02:27:08.277Z,1.90
2022-09-17T02:29:39.272Z,2.37
2022-09-17T02:32:08.929Z,2.30
2022-09-17T02:34:38.011Z,2.20
2022-09-17T02:37:06.867Z,2.10
2022-09-17T02:39:35.151Z,2.80
2022-09-17T02:42:08.851Z,2.13
2022-09-17T02:44:45.564Z,2.07
2022-09-17T02:47:28.192Z,2.90
2022-09-17T02:50:21.435Z,1.80
2022-09-17T02:53:04.079Z,2.63
2022-09-17T02:55:38.350Z,2.50
2022-09-17T02:58:17.841Z,2.40
2022-09-17T03:00:47.073Z,2.63
2022-09-17T03:03:22.119Z,2.47
2022-09-17T03:05:51.368Z,2.33
2022-09-17T03:08:20.388Z,2.97
2022-09-17T03:10:50.364Z,2.53
2022-09-17T03:13:18.406Z,2.60
2022-09-17T03:15:46.501Z,2.80
2022-09-17T03:18:15.849Z,2.77
2022-09-17T03:20:43.890Z,2.70
2022-09-17T03:23:12.027Z,2.37
2022-09-17T03:25:40.099Z,2.50
2022-09-17T03:28:08.123Z,2.40
2022-09-17T03:30:36.140Z,2.80
2022-09-17T03:33:04.181Z,4.17
2022-09-17T03:35:35.559Z,3.20
2022-09-17T03:38:03.751Z,2.87
2022-09-17T03:40:31.794Z,2.40
2022-09-17T03:42:59.833Z,2.90
2022-09-17T03:45:27.833Z,3.10
2022-09-17T03:47:56.185Z,2.60
2022-09-17T03:50:26.511Z,2.73
2022-09-17T03:52:58.109Z,1.97
2022-09-17T03:55:26.233Z,2.10
2022-09-17T03:57:56.167Z,2.10
2022-09-17T04:00:25.382Z,2.17
2022-09-17T04:02:56.318Z,2.97
2022-09-17T04:05:24.709Z,2.30
2022-09-17T04:07:52.695Z,3.93
2022-09-17T04:10:23.086Z,2.43
2022-09-17T04:12:51.094Z,2.30
2022-09-17T04:15:19.129Z,2.00
2022-09-17T04:17:47.274Z,2.27
2022-09-17T04:20:15.455Z,2.83
2022-09-17T04:22:43.457Z,2.93
2022-09-17T04:25:14.072Z,2.47
2022-09-17T04:27:44.344Z,2.50
2022-09-17T04:30:13.463Z,2.67
2022-09-17T04:32:45.286Z,2.37
2022-09-17T04:35:13.646Z,2.17
2022-09-17T04:37:41.732Z,2.47
2022-09-17T04:40:11.144Z,2.13
2022-09-17T04:42:39.160Z,2.20
2022-09-17T04:45:09.301Z,3.10
2022-09-17T04:47:39.843Z,2.90
2022-09-17T04:50:08.579Z,3.03
2022-09-17T04:52:36.633Z,2.00
2022-09-17T04:55:05.194Z,2.10
2022-09-17T04:57:33.201Z,2.30
2022-09-17T05:00:01.453Z,1.90
2022-09-17T05:02:30.822Z,2.40
2022-09-17T05:04:59.943Z,2.67
2022-09-17T05:07:28.010Z,3.17
2022-09-17T05:09:56.107Z,1.93
2022-09-17T05:12:24.408Z,2.43
2022-09-17T05:14:52.413Z,1.80
2022-09-17T05:17:20.465Z,2.93
2022-09-17T05:19:49.808Z,2.17
2022-09-17T05:22:21.470Z,3.50
2022-09-17T05:24:49.788Z,2.23
2022-09-17T05:27:17.911Z,2.47
2022-09-17T05:29:46.291Z,1.77
2022-09-17T05:32:14.307Z,2.40
2022-09-17T05:34:44.838Z,2.00
2022-09-17T05:37:14.202Z,2.00
2022-09-17T05:39:42.216Z,2.30
2022-09-17T05:42:10.194Z,2.57
2022-09-17T05:44:38.180Z,2.60
2022-09-17T05:47:07.348Z,2.17
2022-09-17T05:49:35.355Z,2.10
2022-09-17T05:52:03.999Z,2.40
2022-09-17T05:54:33.383Z,2.77
2022-09-17T05:57:01.827Z,2.33
2022-09-17T05:59:29.777Z,3.00
2022-09-17T06:01:57.840Z,3.47
2022-09-17T06:04:27.689Z,2.97
2022-09-17T06:06:58.983Z,2.63
2022-09-17T06:09:26.971Z,2.60
2022-09-17T06:11:56.347Z,2.87
2022-09-17T06:14:24.406Z,2.40
2022-09-17T06:16:52.443Z,2.43
2022-09-17T06:19:20.435Z,2.70
2022-09-17T06:21:50.507Z,2.40
2022-09-17T06:24:18.587Z,3.50
2022-09-17T06:26:46.596Z,2.53
2022-09-17T06:29:16.045Z,3.70
2022-09-17T06:31:45.153Z,2.30
2022-09-17T06:34:18.451Z,2.20
2022-09-17T06:36:46.861Z,2.20
2022-09-17T06:39:14.845Z,2.27
2022-09-17T06:41:43.290Z,2.27
2022-09-17T06:44:15.581Z,4.13
2022-09-17T06:46:46.666Z,3.20
2022-09-17T06:49:18.401Z,2.40
2022-09-17T06:51:48.704Z,2.83
2022-09-17T06:54:19.147Z,5.50
2022-09-17T06:56:51.389Z,3.00
2022-09-17T06:59:22.876Z,3.20
2022-09-17T07:01:50.978Z,2.23
2022-09-17T07:04:19.327Z,2.80
2022-09-17T07:06:50.663Z,2.50
2022-09-17T07:09:18.760Z,2.73
2022-09-17T07:11:46.935Z,2.40
2022-09-17T07:14:15.225Z,3.90
2022-09-17T07:16:46.259Z,2.60
2022-09-17T07:19:15.293Z,2.67
2022-09-17T07:21:44.105Z,2.57
2022-09-17T07:24:12.203Z,3.53
2022-09-17T07:26:40.204Z,2.97
2022-09-17T07:29:08.330Z,2.47
2022-09-17T07:31:38.894Z,2.40
2022-09-17T07:34:14.217Z,3.37
2022-09-17T07:36:43.944Z,3.03
2022-09-17T07:39:13.141Z,3.40
2022-09-17T07:41:47.040Z,3.50
2022-09-17T07:44:15.111Z,3.00
2022-09-17T07:46:46.279Z,3.17
2022-09-17T07:49:18.452Z,2.43
2022-09-17T07:51:46.879Z,3.20
2022-09-17T07:54:17.192Z,3.30
2022-09-17T07:56:45.295Z,2.80
2022-09-17T07:59:13.439Z,4.00
2022-09-17T08:01:41.751Z,3.00
2022-09-17T08:04:09.791Z,3.10
2022-09-17T08:06:41.067Z,3.50
2022-09-17T08:09:10.833Z,3.83
2022-09-17T08:11:55.020Z,2.67
2022-09-17T08:14:28.500Z,2.20
2022-09-17T08:16:57.920Z,2.83
2022-09-17T08:19:26.035Z,2.43
2022-09-17T08:21:55.364Z,3.80
2022-09-17T08:24:23.359Z,2.10
2022-09-17T08:26:51.868Z,3.47
2022-09-17T08:29:20.062Z,3.00
2022-09-17T08:31:48.380Z,3.13
2022-09-17T08:34:16.539Z,3.00
2022-09-17T08:36:44.763Z,2.23
2022-09-17T08:39:14.204Z,3.03
2022-09-17T08:41:54.068Z,2.50
2022-09-17T08:44:27.367Z,2.30
2022-09-17T08:47:01.363Z,2.60
2022-09-17T08:49:36.090Z,2.70
2022-09-17T08:52:39.992Z,1.93
2022-09-17T08:55:21.434Z,3.17
2022-09-17T08:57:56.354Z,2.10
2022-09-17T09:00:25.573Z,2.33
2022-09-17T09:03:10.241Z,2.53
2022-09-17T09:05:46.159Z,2.80
2022-09-17T09:08:18.449Z,2.63
2022-09-17T09:10:51.244Z,3.10
2022-09-17T09:13:22.634Z,3.37
2022-09-17T09:15:55.389Z,2.40
2022-09-17T09:18:26.102Z,3.40
2022-09-17T09:20:55.804Z,5.37
2022-09-17T09:23:34.615Z,3.40
2022-09-17T09:26:17.089Z,3.63
2022-09-17T09:29:18.410Z,2.77
2022-09-17T09:32:12.382Z,3.73
2022-09-17T09:34:43.832Z,2.70
2022-09-17T09:37:16.455Z,2.37
2022-09-17T09:39:46.434Z,2.57
2022-09-17T09:42:24.994Z,2.10
2022-09-17T09:44:53.509Z,2.63
2022-09-17T09:47:42.884Z,2.40
2022-09-17T09:50:34.553Z,2.07
2022-09-17T09:53:18.412Z,2.77
2022-09-17T09:56:02.148Z,2.63
2022-09-17T09:58:36.215Z,2.80
2022-09-17T10:01:04.789Z,2.20
2022-09-17T10:03:58.903Z,2.30
2022-09-17T10:06:31.561Z,2.53
2022-09-17T10:09:13.892Z,2.40
2022-09-17T10:11:42.482Z,2.60
2022-09-17T10:14:25.573Z,2.40
2022-09-17T10:17:13.301Z,2.97
2022-09-17T10:19:44.484Z,2.90
2022-09-17T10:22:28.194Z,2.40
2022-09-17T10:24:58.351Z,2.50
2022-09-17T10:27:28.114Z,2.57
2022-09-17T10:30:16.202Z,2.63
2022-09-17T10:32:45.115Z,2.50
2022-09-17T10:35:27.599Z,2.57
2022-09-17T10:37:56.366Z,3.10
2022-09-17T10:40:31.364Z,2.40
2022-09-17T10:43:23.811Z,2.83
2022-09-17T10:46:01.424Z,3.40
2022-09-17T10:48:33.849Z,2.20
2022-09-17T10:51:06.465Z,2.70
2022-09-17T10:53:43.795Z,2.83
2022-09-17T10:56:19.532Z,4.43
2022-09-17T10:58:58.066Z,2.07
2022-09-17T11:01:41.847Z,2.30
2022-09-17T11:04:23.075Z,2.53
2022-09-17T11:07:21.224Z,3.10
2022-09-17T11:09:56.653Z,2.37
2022-09-17T11:12:38.291Z,2.37
2022-09-17T11:15:18.667Z,2.30
2022-09-17T11:18:04.192Z,2.20
2022-09-17T11:20:48.747Z,2.63
2022-09-17T11:23:32.255Z,2.40
2022-09-17T11:26:04.873Z,2.53
2022-09-17T11:28:45.967Z,2.83
2022-09-17T11:31:27.047Z,2.37
2022-09-17T11:34:29.356Z,2.17
2022-09-17T11:37:03.907Z,3.27
2022-09-17T11:39:37.789Z,2.53
2022-09-17T11:42:11.585Z,2.50
2022-09-17T11:44:45.932Z,2.30
2022-09-17T11:47:18.018Z,2.50
2022-09-17T11:49:55.265Z,3.40
2022-09-17T11:52:28.141Z,2.20
2022-09-17T11:55:02.013Z,2.77
2022-09-17T11:57:35.404Z,2.67
2022-09-17T12:00:07.925Z,3.50
2022-09-17T12:02:52.684Z,3.50
2022-09-17T12:05:27.220Z,2.60
2022-09-17T12:08:00.605Z,2.73
2022-09-17T12:10:39.696Z,2.90
2022-09-17T12:13:19.407Z,2.50
2022-09-17T12:15:53.385Z,2.70
2022-09-17T12:18:33.886Z,2.63
2022-09-17T12:21:06.113Z,2.17
2022-09-17T12:23:41.300Z,2.53
2022-09-17T12:26:22.136Z,2.60
2022-09-17T12:28:58.763Z,2.20
2022-09-17T12:31:36.469Z,2.87
2022-09-17T12:34:27.462Z,2.73
2022-09-17T12:37:10.945Z,2.50
2022-09-17T12:40:00.315Z,2.30
2022-09-17T12:42:42.569Z,2.53
2022-09-17T12:45:28.065Z,2.80
2022-09-17T12:48:37.956Z,3.10
2022-09-17T12:51:18.258Z,2.50
2022-09-17T12:54:01.060Z,2.60
2022-09-17T12:56:44.786Z,2.43
2022-09-17T12:59:19.391Z,2.20
2022-09-17T13:01:54.112Z,3.40
2022-09-17T13:05:00.354Z,2.40
2022-09-17T13:07:54.523Z,2.53
2022-09-17T13:10:41.510Z,2.30
2022-09-17T13:13:26.040Z,2.63
2022-09-17T13:16:06.085Z,2.40
2022-09-17T13:18:59.339Z,4.10
2022-09-17T13:21:40.423Z,2.87
2022-09-17T13:24:17.004Z,2.80
2022-09-17T13:26:47.441Z,3.30
2022-09-17T13:30:02.347Z,2.37
2022-09-17T13:32:53.705Z,2.10
2022-09-17T13:35:50.076Z,2.43
2022-09-17T13:38:23.666Z,2.20
2022-09-17T13:40:53.051Z,3.13
2022-09-17T13:43:28.095Z,2.63
2022-09-17T13:46:24.035Z,2.47
2022-09-17T13:48:57.990Z,2.87
2022-09-17T13:51:52.914Z,2.40
2022-09-17T13:54:24.396Z,2.67
2022-09-17T13:57:15.802Z,2.67
2022-09-17T13:59:57.600Z,2.27
2022-09-17T14:02:34.019Z,2.10
2022-09-17T14:05:26.158Z,3.33
2022-09-17T14:08:31.275Z,2.50
2022-09-17T14:11:05.891Z,2.37
2022-09-17T14:13:45.106Z,2.40
2022-09-17T14:16:37.192Z,2.50
2022-09-17T14:19:29.726Z,3.23
2022-09-17T14:22:00.788Z,2.53
2022-09-17T14:24:37.033Z,3.20
2022-09-17T14:27:19.235Z,3.23
2022-09-17T14:30:16.809Z,4.17
2022-09-17T14:33:03.647Z,3.20
2022-09-17T14:35:37.142Z,2.93
2022-09-17T14:38:13.875Z,2.20
2022-09-17T14:40:45.892Z,2.90
2022-09-17T14:43:20.994Z,2.63
2022-09-17T14:45:53.403Z,4.30
2022-09-17T14:48:28.897Z,2.67
2022-09-17T14:51:25.379Z,2.50
2022-09-17T14:54:12.305Z,2.63
2022-09-17T14:56:58.751Z,2.97
2022-09-17T14:59:44.036Z,3.03
2022-09-17T15:02:35.171Z,2.23
2022-09-17T15:05:16.848Z,2.80
2022-09-17T15:08:11.466Z,3.50
2022-09-17T15:10:48.076Z,3.63
2022-09-17T15:13:19.341Z,3.20
2022-09-17T15:16:14.545Z,2.53
2022-09-17T15:18:47.369Z,2.90
2022-09-17T15:21:31.066Z,2.93
2022-09-17T15:24:09.007Z,3.20
2022-09-17T15:26:41.123Z,3.20
2022-09-17T15:29:12.452Z,3.87
2022-09-17T15:31:41.212Z,3.60
2022-09-17T15:34:12.590Z,3.00
2022-09-17T15:36:40.630Z,2.90
2022-09-17T15:39:31.442Z,2.30
2022-09-17T15:42:02.539Z,2.73
2022-09-17T15:44:31.671Z,2.80
2022-09-17T15:47:34.506Z,2.50
2022-09-17T15:50:16.415Z,2.90
2022-09-17T15:52:45.104Z,2.83
2022-09-17T15:55:31.977Z,3.00
2022-09-17T15:58:00.957Z,2.83
2022-09-17T16:00:29.033Z,2.87
2022-09-17T16:02:57.829Z,2.17
2022-09-17T16:05:55.727Z,2.87
2022-09-17T16:08:25.804Z,2.97
2022-09-17T16:10:55.651Z,3.10
2022-09-17T16:13:28.459Z,3.50
2022-09-17T16:15:59.174Z,2.63
2022-09-17T16:18:27.696Z,3.10
2022-09-17T16:20:55.866Z,3.10
2022-09-17T16:23:28.890Z,4.63
2022-09-17T16:26:01.433Z,3.57
2022-09-17T16:28:38.628Z,4.83
2022-09-17T16:31:13.789Z,4.03
2022-09-17T16:33:42.191Z,2.73
2022-09-17T16:36:10.477Z,3.07
2022-09-17T16:38:40.584Z,2.80
2022-09-17T16:41:10.107Z,3.13
2022-09-17T16:43:45.689Z,4.60
2022-09-17T16:46:21.371Z,3.53
2022-09-17T16:48:51.059Z,2.87
2022-09-17T16:51:19.230Z,3.70
2022-09-17T16:53:47.341Z,2.90
2022-09-17T16:56:17.180Z,3.60
2022-09-17T16:58:45.187Z,3.67
2022-09-17T17:01:15.622Z,2.93
2022-09-17T17:03:49.098Z,3.80
2022-09-17T17:06:18.413Z,3.40
2022-09-17T17:08:49.236Z,3.87
2022-09-17T17:11:18.773Z,4.20
2022-09-17T17:13:49.935Z,3.90
2022-09-17T17:16:21.276Z,4.67
2022-09-17T17:18:49.321Z,2.67
2022-09-17T17:21:17.319Z,2.93
2022-09-17T17:23:47.225Z,4.90
2022-09-17T17:26:15.441Z,3.50
2022-09-17T17:28:49.861Z,3.37
2022-09-17T17:31:19.611Z,4.77
2022-09-17T17:33:47.729Z,3.00
2022-09-17T17:36:17.992Z,4.10
2022-09-17T17:38:46.109Z,3.10
2022-09-17T17:41:15.915Z,3.83
2022-09-17T17:43:45.527Z,2.83
2022-09-17T17:46:14.858Z,3.30
2022-09-17T17:48:43.782Z,4.13
2022-09-17T17:51:12.172Z,3.33
2022-09-17T17:53:43.883Z,4.63
2022-09-17T17:56:12.708Z,5.70
2022-09-17T17:58:41.255Z,4.23
2022-09-17T18:01:15.914Z,4.40
2022-09-17T18:03:44.639Z,5.30
2022-09-17T18:06:17.326Z,2.93
2022-09-17T18:08:54.748Z,4.50
2022-09-17T18:11:25.911Z,3.10
2022-09-17T18:14:02.092Z,2.77
2022-09-17T18:16:39.637Z,2.97
2022-09-17T18:19:13.590Z,3.30
2022-09-17T18:21:47.233Z,3.90
2022-09-17T18:24:21.829Z,4.30
2022-09-17T18:26:49.926Z,4.53
2022-09-17T18:29:18.337Z,2.90
2022-09-17T18:31:51.769Z,3.27
2022-09-17T18:34:19.842Z,3.50
2022-09-17T18:36:51.215Z,3.77
2022-09-17T18:39:57.006Z,4.40
2022-09-17T18:42:09.460Z,2.47
2022-09-17T18:44:37.565Z,3.97
2022-09-17T18:47:07.182Z,4.27
2022-09-17T18:49:35.353Z,4.63
2022-09-17T18:52:03.849Z,2.60
2022-09-17T18:54:31.874Z,4.97
2022-09-17T18:57:00.000Z,3.43
2022-09-17T18:59:30.272Z,4.53
2022-09-17T19:01:58.535Z,4.37
2022-09-17T19:04:29.726Z,4.10
2022-09-17T19:06:58.119Z,3.70
2022-09-17T19:09:26.184Z,4.90
2022-09-17T19:11:54.230Z,6.20
2022-09-17T19:14:22.311Z,4.40
2022-09-17T19:16:50.288Z,2.83
2022-09-17T19:19:20.588Z,3.77
2022-09-17T19:21:51.490Z,3.40
2022-09-17T19:24:19.580Z,3.73
2022-09-17T19:26:50.773Z,3.80
2022-09-17T19:29:19.206Z,4.70
2022-09-17T19:31:47.359Z,5.10
2022-09-17T19:34:16.309Z,7.33
2022-09-17T19:36:44.625Z,5.20
2022-09-17T19:39:14.590Z,6.77
2022-09-17T19:41:42.875Z,4.97
2022-09-17T19:44:11.145Z,4.10
2022-09-17T19:46:39.935Z,3.90
2022-09-17T19:49:09.471Z,3.30
2022-09-17T19:51:38.721Z,5.30
2022-09-17T19:54:09.529Z,4.90
2022-09-17T19:56:39.920Z,5.67
2022-09-17T19:59:08.474Z,4.20
2022-09-17T20:01:36.838Z,6.13
2022-09-17T20:04:05.062Z,5.07
2022-09-17T20:06:35.444Z,5.57
2022-09-17T20:09:04.558Z,8.00
2022-09-17T20:11:35.297Z,9.00
2022-09-17T20:14:07.865Z,6.07
2022-09-17T20:16:38.534Z,4.20
2022-09-17T20:19:08.166Z,4.53
2022-09-17T20:21:37.251Z,4.93
2022-09-17T20:24:08.577Z,5.07
2022-09-17T20:26:36.954Z,5.83
2022-09-17T20:29:06.454Z,6.33
2022-09-17T20:31:34.797Z,5.87
2022-09-17T20:34:04.126Z,7.07
2022-09-17T20:36:35.530Z,4.80
2022-09-17T20:39:17.960Z,6.00
2022-09-17T20:41:50.827Z,4.03
2022-09-17T20:44:22.486Z,6.37
2022-09-17T20:46:53.187Z,5.60
2022-09-17T20:49:21.457Z,4.30
2022-09-17T20:51:49.914Z,5.93
2022-09-17T20:54:18.126Z,4.97
2022-09-17T20:56:46.584Z,4.10
2022-09-17T20:59:18.663Z,7.40
2022-09-17T21:01:50.860Z,5.97
2022-09-17T21:04:21.315Z,4.73
2022-09-17T21:06:52.474Z,4.07
2022-09-17T21:09:20.697Z,4.00
2022-09-17T21:11:49.917Z,4.40
2022-09-17T21:14:18.484Z,5.37
2022-09-17T21:16:48.628Z,5.03
2022-09-17T21:19:19.969Z,4.60
2022-09-17T21:21:51.681Z,5.87
2022-09-17T21:24:19.761Z,5.30
2022-09-17T21:26:47.819Z,6.23
2022-09-17T21:29:18.329Z,4.00
2022-09-17T21:31:46.455Z,3.97
2022-09-17T21:34:15.029Z,6.03
2022-09-17T21:36:46.464Z,3.77
2022-09-17T21:39:16.183Z,4.63
2022-09-17T21:41:45.301Z,6.23
2022-09-17T21:44:13.801Z,3.60
2022-09-17T21:46:42.919Z,4.13
2022-09-17T21:49:13.371Z,4.63
2022-09-17T21:51:43.293Z,4.37
2022-09-17T21:54:18.444Z,3.10
2022-09-17T21:56:47.466Z,2.30
2022-09-17T21:59:16.930Z,4.53
2022-09-17T22:01:47.326Z,3.33
2022-09-17T22:04:18.160Z,4.47
2022-09-17T22:06:48.125Z,4.20
2022-09-17T22:09:19.019Z,4.50
2022-09-17T22:11:47.135Z,4.47
2022-09-17T22:14:19.483Z,4.20
2022-09-17T22:16:49.289Z,4.70
2022-09-17T22:19:19.117Z,4.93
2022-09-17T22:21:48.749Z,5.17
2022-09-17T22:24:19.200Z,5.83
2022-09-17T22:26:56.433Z,3.67
2022-09-17T22:29:25.728Z,4.80
2022-09-17T22:31:54.650Z,4.70
2022-09-17T22:34:25.314Z,5.30
2022-09-17T22:36:53.489Z,4.20
2022-09-17T22:39:23.194Z,5.00
2022-09-17T22:41:51.460Z,4.27
2022-09-17T22:44:20.502Z,4.33
2022-09-17T22:46:50.187Z,4.83
2022-09-17T22:49:19.102Z,3.83
2022-09-17T22:51:47.782Z,3.37
2022-09-17T22:54:19.661Z,4.13
2022-09-17T22:56:49.317Z,3.87
2022-09-17T22:59:18.174Z,5.77
2022-09-17T23:01:46.403Z,3.90
2022-09-17T23:04:14.407Z,2.30
2022-09-17T23:06:43.063Z,5.10
2022-09-17T23:09:13.317Z,4.77
2022-09-17T23:11:41.903Z,2.47
2022-09-17T23:14:13.188Z,7.20
2022-09-17T23:16:42.929Z,3.43
2022-09-17T23:19:11.823Z,3.00
2022-09-17T23:21:39.960Z,3.73
2022-09-17T23:24:13.915Z,4.17
2022-09-17T23:26:41.966Z,4.80
2022-09-17T23:29:11.318Z,3.00
2022-09-17T23:31:39.400Z,3.50
2022-09-17T23:34:07.806Z,4.33
2022-09-17T23:36:38.148Z,2.63
2022-09-17T23:39:07.379Z,3.40
2022-09-17T23:41:37.109Z,4.37
2022-09-17T23:44:12.168Z,3.80
2022-09-17T23:46:45.693Z,5.33
2022-09-17T23:49:15.113Z,2.57
2022-09-17T23:51:46.330Z,3.50
2022-09-17T23:54:14.362Z,2.80
2022-09-17T23:56:42.364Z,4.17
2022-09-17T23:59:11.419Z,4.70
